Time;durP1;ratioP1;P1;durP2;ratioP2;P2;SDS_P1;SDS_P2;PMS_P1;PMS_P2;Temp;Humidity;BMP_temperature;BMP_pressure;BME280_temperature;BME280_humidity;BME280_pressure;Samples;Min_cycle;Max_cycle;Signal;HPM_P1;HPM_P2
2022/10/05 00:00:55;;;;;;;11.07;7.43;;;;;;;13.58;100.00;101604.00;5246582;28;20040;-63
2022/10/05 00:03:32;;;;;;;13.32;8.13;;;;;;;13.58;100.00;101611.19;5268693;28;20021;-64
2022/10/05 00:06:03;;;;;;;11.95;7.47;;;;;;;13.63;100.00;101592.91;5264454;28;20024;-63
2022/10/05 00:08:35;;;;;;;12.40;8.30;;;;;;;13.56;100.00;101594.34;5259040;28;20340;-64
2022/10/05 00:11:07;;;;;;;11.10;7.88;;;;;;;13.61;100.00;101603.75;5263023;28;20032;-63
2022/10/05 00:13:39;;;;;;;12.05;7.97;;;;;;;13.55;100.00;101598.88;5258849;28;20119;-64
2022/10/05 00:16:10;;;;;;;11.10;8.10;;;;;;;13.63;100.00;101592.91;5260851;28;20036;-64
2022/10/05 00:18:45;;;;;;;9.98;7.50;;;;;;;13.58;100.00;101597.78;5264760;28;20494;-63
2022/10/05 00:21:23;;;;;;;10.63;7.57;;;;;;;13.59;100.00;101591.44;5259857;28;20107;-63
2022/10/05 00:23:56;;;;;;;13.73;8.27;;;;;;;13.64;100.00;101587.44;5262030;28;20024;-64
2022/10/05 00:26:32;;;;;;;12.40;8.27;;;;;;;13.63;100.00;101579.50;5267354;28;20016;-63
2022/10/05 00:29:17;;;;;;;11.45;7.55;;;;;;;13.59;100.00;101573.53;5257806;28;20290;-63
2022/10/05 00:31:49;;;;;;;11.13;8.20;;;;;;;13.53;100.00;101582.91;5266924;28;20060;-64
2022/10/05 00:34:20;;;;;;;15.57;8.77;;;;;;;13.56;100.00;101583.63;5261113;28;20036;-63
2022/10/05 00:36:51;;;;;;;10.57;8.27;;;;;;;13.67;100.00;101589.00;5257584;28;20020;-63
2022/10/05 00:39:23;;;;;;;13.02;8.27;;;;;;;13.55;100.00;101574.75;5259144;28;20039;-64
2022/10/05 00:42:03;;;;;;;14.32;8.77;;;;;;;13.61;100.00;101584.13;5258674;28;20750;-63
2022/10/05 00:44:55;;;;;;;10.45;7.85;;;;;;;13.59;100.00;101573.53;5257565;28;20059;-65
2022/10/05 00:47:33;;;;;;;14.18;8.85;;;;;;;13.61;100.00;101581.44;5254263;28;20036;-63
2022/10/05 00:50:26;;;;;;;12.07;8.15;;;;;;;13.57;100.00;101578.16;5262034;28;20033;-64
2022/10/05 00:53:07;;;;;;;10.77;7.95;;;;;;;13.62;100.00;101580.50;5257248;28;20357;-63
2022/10/05 00:55:44;;;;;;;11.05;7.85;;;;;;;13.56;100.00;101578.25;5256871;28;20036;-63
2022/10/05 00:58:48;;;;;;;13.68;8.48;;;;;;;13.56;100.00;101580.94;5255314;28;20040;-63
2022/10/05 01:01:35;;;;;;;12.07;8.40;;;;;;;13.54;100.00;101573.03;5257855;28;20037;-64
2022/10/05 01:04:43;;;;;;;10.60;8.30;;;;;;;13.50;100.00;101568.88;5261753;28;20033;-64
2022/10/05 01:07:20;;;;;;;13.45;8.45;;;;;;;13.48;100.00;101566.31;5255542;28;20025;-65
2022/10/05 01:10:00;;;;;;;12.98;8.27;;;;;;;13.60;100.00;101572.56;5267972;28;20355;-64
2022/10/05 01:12:42;;;;;;;11.00;8.57;;;;;;;13.52;100.00;101566.94;5264785;28;20063;-64
2022/10/05 01:15:16;;;;;;;11.63;8.05;;;;;;;13.51;100.00;101558.03;5259559;28;20021;-64
2022/10/05 01:17:57;;;;;;;14.13;8.68;;;;;;;13.42;100.00;101553.38;5264328;28;20493;-63
2022/10/05 01:20:49;;;;;;;10.82;8.68;;;;;;;13.50;100.00;101552.78;5264924;28;20060;-63
2022/10/05 01:23:53;;;;;;;12.50;8.48;;;;;;;13.46;100.00;101549.50;5258376;28;20040;-63
2022/10/05 01:26:55;;;;;;;11.30;8.60;;;;;;;13.47;100.00;101553.03;5257966;28;20444;-63
2022/10/05 01:29:40;;;;;;;11.35;8.27;;;;;;;13.41;100.00;101543.66;5260602;28;20072;-64
2022/10/05 01:32:38;;;;;;;12.60;8.43;;;;;;;13.44;100.00;101543.41;5259454;28;20035;-64
2022/10/05 01:35:28;;;;;;;12.00;8.23;;;;;;;13.40;100.00;101544.59;5255794;28;20106;-64
2022/10/05 01:38:21;;;;;;;11.25;8.52;;;;;;;13.43;100.00;101539.00;5267897;28;20459;-63
2022/10/05 01:41:18;;;;;;;11.30;9.02;;;;;;;13.47;100.00;101545.84;5263629;28;20129;-64
2022/10/05 01:44:04;;;;;;;12.13;8.45;;;;;;;13.38;100.00;101541.19;5264707;28;20036;-63
2022/10/05 01:46:48;;;;;;;14.23;8.82;;;;;;;13.40;100.00;101538.41;5257840;28;20128;-64
2022/10/05 01:49:44;;;;;;;14.45;8.88;;;;;;;13.36;100.00;101536.94;5257301;28;20037;-63
2022/10/05 01:52:42;;;;;;;12.82;8.80;;;;;;;13.36;100.00;101535.09;5255757;28;20037;-64
2022/10/05 01:55:21;;;;;;;12.50;8.40;;;;;;;13.34;100.00;101526.31;5262926;28;20131;-63
2022/10/05 01:58:06;;;;;;;11.55;8.77;;;;;;;13.43;100.00;101522.94;5268204;28;20093;-63
2022/10/05 02:00:56;;;;;;;;;;;;;;;13.44;100.00;101526.47;5258662;28;20051;-64
2022/10/05 02:03:34;;;;;;;10.35;7.93;;;;;;;13.44;100.00;101513.06;5257457;28;19943;-64
2022/10/05 02:06:11;;;;;;;13.05;8.73;;;;;;;13.48;100.00;101503.78;5259580;28;20029;-63
2022/10/05 02:08:49;;;;;;;10.65;7.88;;;;;;;13.34;100.00;101505.72;5261800;28;20059;-64
2022/10/05 02:11:20;;;;;;;12.80;7.97;;;;;;;13.39;100.00;101505.38;5257390;28;20413;-63
2022/10/05 02:13:57;;;;;;;12.95;8.80;;;;;;;13.35;100.00;101493.19;5266012;28;20024;-63
2022/10/05 02:16:35;;;;;;;13.45;8.52;;;;;;;13.34;100.00;101503.03;5262139;28;20397;-63
2022/10/05 02:19:31;;;;;;;12.57;8.45;;;;;;;13.38;100.00;101500.97;5252589;28;20405;-64
2022/10/05 02:22:07;;;;;;;13.65;8.43;;;;;;;13.33;100.00;101500.50;5251145;28;20114;-63
2022/10/05 02:24:45;;;;;;;10.85;8.20;;;;;;;13.38;100.00;101495.63;5251966;28;20922;-63
2022/10/05 02:27:23;;;;;;;10.77;7.25;;;;;;;13.32;100.00;101488.06;5252568;28;21769;-63
2022/10/05 02:30:05;;;;;;;14.15;8.68;;;;;;;13.40;100.00;101484.78;5258956;28;20025;-63
2022/10/05 02:32:43;;;;;;;12.00;7.28;;;;;;;13.33;100.00;101490.63;5259401;28;20122;-63
2022/10/05 02:35:17;;;;;;;11.50;8.00;;;;;;;13.36;100.00;101486.84;5257939;28;20035;-63
2022/10/05 02:38:36;;;;;;;12.60;7.88;;;;;;;13.39;100.00;101477.72;5251913;28;20044;-64
2022/10/05 02:41:29;;;;;;;10.65;7.53;;;;;;;13.31;100.00;101470.28;5244882;28;20055;-63
2022/10/05 02:44:16;;;;;;;11.68;7.38;;;;;;;13.44;100.00;101472.84;5255721;28;20033;-64
2022/10/05 02:46:59;;;;;;;10.80;7.88;;;;;;;13.33;100.00;101463.81;5255333;28;20032;-64
2022/10/05 02:50:17;;;;;;;12.50;7.03;;;;;;;13.38;100.00;101465.28;5253441;28;20035;-63
2022/10/05 02:52:55;;;;;;;11.77;7.97;;;;;;;13.32;100.00;101453.22;5221753;28;20056;-63
2022/10/05 02:55:36;;;;;;;9.65;7.07;;;;;;;13.30;100.00;101460.53;5257917;28;20039;-63
2022/10/05 02:58:14;;;;;;;12.48;7.45;;;;;;;13.40;100.00;101458.81;5254936;28;21274;-63
2022/10/05 03:00:53;;;;;;;10.70;7.45;;;;;;;13.28;100.00;101454.41;5251939;28;22147;-63
2022/10/05 03:03:32;;;;;;;11.05;7.05;;;;;;;13.28;100.00;101455.25;5255118;28;20501;-63
2022/10/05 03:06:26;;;;;;;12.48;7.85;;;;;;;13.29;100.00;101442.72;5258924;28;20028;-63
2022/10/05 03:09:01;;;;;;;12.25;8.25;;;;;;;13.25;100.00;101446.59;5254931;28;20111;-63
2022/10/05 03:11:51;;;;;;;9.77;7.85;;;;;;;13.28;100.00;101451.72;5249241;28;20720;-63
2022/10/05 03:14:34;;;;;;;11.25;7.55;;;;;;;13.25;100.00;101446.59;5254271;28;20036;-63
2022/10/05 03:17:12;;;;;;;12.30;7.63;;;;;;;13.23;100.00;101440.50;5258807;28;20142;-63
2022/10/05 03:19:58;;;;;;;9.57;7.50;;;;;;;13.31;100.00;101443.50;5261846;28;20035;-63
2022/10/05 03:23:01;;;;;;;10.93;7.10;;;;;;;13.22;100.00;101441.50;5253110;28;20033;-63
2022/10/05 03:25:35;;;;;;;11.50;7.40;;;;;;;13.17;100.00;101433.78;5259096;28;20033;-63
2022/10/05 03:28:18;;;;;;;11.55;6.75;;;;;;;13.17;100.00;101435.63;5245857;28;20680;-63
2022/10/05 03:31:01;;;;;;;13.75;7.10;;;;;;;13.27;100.00;101447.31;5251537;28;20441;-63
2022/10/05 03:33:35;;;;;;;10.60;7.35;;;;;;;13.20;100.00;101438.09;5238704;28;20414;-63
2022/10/05 03:36:25;;;;;;;;;;;;;;;13.25;100.00;101443.91;5256173;28;20032;-64
2022/10/05 03:39:22;;;;;;;11.25;8.10;;;;;;;13.20;100.00;101435.41;5251363;28;20457;-63
2022/10/05 03:42:17;;;;;;;14.48;8.20;;;;;;;13.20;100.00;101433.56;5252793;28;20052;-63
2022/10/05 03:45:29;;;;;;;10.95;7.88;;;;;;;13.17;100.00;101432.94;5220289;28;20036;-65
2022/10/05 03:48:07;;;;;;;10.52;7.72;;;;;;;13.20;100.00;101432.72;5241403;28;20033;-63
2022/10/05 03:50:39;;;;;;;12.23;7.75;;;;;;;13.12;100.00;101442.22;5251309;28;20052;-63
2022/10/05 03:53:15;;;;;;;11.65;7.47;;;;;;;13.10;100.00;101435.28;5251445;28;20052;-63
2022/10/05 03:56:00;;;;;;;9.82;7.88;;;;;;;13.12;100.00;101436.00;5249308;28;20426;-63
2022/10/05 03:58:38;;;;;;;13.50;8.50;;;;;;;13.11;100.00;101437.81;5254065;28;20035;-63
2022/10/05 04:01:15;;;;;;;9.95;7.72;;;;;;;13.16;100.00;101440.16;5250301;28;20180;-63
2022/10/05 04:03:52;;;;;;;13.52;8.48;;;;;;;13.08;100.00;101440.75;5257143;28;20021;-63
2022/10/05 04:06:32;;;;;;;13.05;8.27;;;;;;;13.09;100.00;101445.13;5257068;28;20398;-64
2022/10/05 04:09:13;;;;;;;15.60;8.50;;;;;;;13.14;100.00;101437.56;5248747;28;20021;-63
2022/10/05 04:11:53;;;;;;;14.05;8.52;;;;;;;13.13;100.00;101440.38;5249142;28;20033;-64
2022/10/05 04:14:31;;;;;;;12.50;9.38;;;;;;;13.14;100.00;101442.94;5253254;28;20098;-64
2022/10/05 04:17:10;;;;;;;14.55;9.05;;;;;;;13.09;100.00;101429.03;5251150;28;20305;-64
2022/10/05 04:19:50;;;;;;;13.18;9.10;;;;;;;13.07;100.00;101446.22;5248367;28;20029;-64
2022/10/05 04:22:27;;;;;;;15.02;9.35;;;;;;;13.11;100.00;101445.00;5247809;28;20506;-65
2022/10/05 04:25:20;;;;;;;13.00;8.90;;;;;;;13.07;100.00;101441.69;5247031;28;20029;-64
2022/10/05 04:28:10;;;;;;;14.45;9.43;;;;;;;13.07;100.00;101440.84;5253990;28;20120;-63
2022/10/05 04:30:45;;;;;;;11.50;8.55;;;;;;;13.06;100.00;101431.97;5247947;28;21092;-63
2022/10/05 04:33:16;;;;;;;12.32;8.52;;;;;;;13.17;100.00;101433.78;5258598;28;20039;-64
2022/10/05 04:36:08;;;;;;;14.02;9.60;;;;;;;13.16;100.00;101428.59;5260837;28;20099;-64
2022/10/05 04:38:48;;;;;;;12.63;9.18;;;;;;;13.16;100.00;101424.06;5257680;28;20037;-64
2022/10/05 04:42:03;;;;;;;14.75;8.70;;;;;;;13.11;100.00;101421.72;5250025;28;20170;-63
2022/10/05 04:44:51;;;;;;;13.93;9.10;;;;;;;13.09;100.00;101422.84;5185002;28;20537;-64
2022/10/05 04:47:44;;;;;;;11.40;8.23;;;;;;;13.07;100.00;101419.44;5253729;28;20143;-63
2022/10/05 04:50:34;;;;;;;14.48;8.18;;;;;;;13.06;100.00;101421.25;5251582;28;20024;-63
2022/10/05 04:53:15;;;;;;;11.52;7.53;;;;;;;13.07;100.00;101420.25;5251777;28;20045;-63
2022/10/05 04:55:55;;;;;;;11.60;7.55;;;;;;;13.10;100.00;101419.19;5252518;28;20059;-64
2022/10/05 04:58:53;;;;;;;11.23;7.50;;;;;;;13.12;100.00;101419.94;5261457;28;20128;-63
2022/10/05 05:01:42;;;;;;;9.70;7.00;;;;;;;13.06;100.00;101415.91;5253752;28;20117;-63
2022/10/05 05:04:43;;;;;;;10.20;6.55;;;;;;;13.07;100.00;101411.38;5271194;28;20585;-64
2022/10/05 05:07:17;;;;;;;11.70;6.88;;;;;;;13.11;100.00;101410.16;5260924;28;20028;-63
2022/10/05 05:10:22;;;;;;;8.43;6.38;;;;;;;13.08;100.00;101413.94;5259016;28;20062;-64
2022/10/05 05:13:25;;;;;;;8.35;6.28;;;;;;;13.09;100.00;101410.28;5257509;28;20028;-64
2022/10/05 05:16:18;;;;;;;10.95;6.57;;;;;;;13.20;100.00;101405.94;5240699;28;20051;-63
2022/10/05 05:19:26;;;;;;;7.93;5.60;;;;;;;13.14;100.00;101401.91;5259828;28;20578;-63
2022/10/05 05:22:26;;;;;;;8.30;6.20;;;;;;;13.18;100.00;101411.41;5262631;28;20104;-63
2022/10/05 05:25:31;;;;;;;10.05;6.07;;;;;;;13.16;100.00;101404.47;5266380;28;20055;-64
2022/10/05 05:28:22;;;;;;;8.48;6.55;;;;;;;13.14;100.00;101409.94;5266922;28;20425;-65
2022/10/05 05:31:11;;;;;;;9.73;6.35;;;;;;;13.14;100.00;101400.06;5259305;28;20032;-64
2022/10/05 05:34:05;;;;;;;9.50;6.55;;;;;;;13.17;100.00;101409.69;5263430;28;20407;-63
2022/10/05 05:37:19;;;;;;;8.82;6.30;;;;;;;13.12;100.00;101401.19;5262010;28;20033;-63
2022/10/05 05:40:26;;;;;;;9.23;6.15;;;;;;;13.11;100.00;101394.94;5259437;28;20156;-64
2022/10/05 05:43:01;;;;;;;8.38;6.22;;;;;;;13.07;100.00;101393.47;5213327;28;20139;-63
2022/10/05 05:45:40;;;;;;;8.48;5.88;;;;;;;13.13;100.00;101386.78;5255287;28;20032;-64
2022/10/05 05:48:25;;;;;;;10.23;6.78;;;;;;;13.09;100.00;101390.69;5272323;28;20471;-63
2022/10/05 05:51:16;;;;;;;;;;;;;;;13.14;100.00;101385.81;5264411;28;20033;-63
2022/10/05 05:54:12;;;;;;;8.85;6.22;;;;;;;13.09;100.00;101383.50;5265556;28;20010;-63
2022/10/05 05:56:54;;;;;;;10.30;5.97;;;;;;;13.12;100.00;101385.09;5259260;28;20422;-64
2022/10/05 05:59:40;;;;;;;7.97;5.60;;;;;;;13.12;100.00;101383.25;5260930;28;20033;-64
2022/10/05 06:02:18;;;;;;;8.07;5.10;;;;;;;13.08;100.00;101383.63;5264956;28;20033;-64
2022/10/05 06:04:57;;;;;;;9.52;5.20;;;;;;;13.10;100.00;101377.19;5259849;28;20041;-63
2022/10/05 06:07:30;;;;;;;8.63;5.40;;;;;;;13.11;100.00;101384.22;5266335;28;20043;-64
2022/10/05 06:10:25;;;;;;;10.07;5.32;;;;;;;13.13;100.00;101382.31;5263538;28;20024;-64
2022/10/05 06:13:02;;;;;;;7.35;5.13;;;;;;;13.15;100.00;101384.84;5263812;28;20640;-64
2022/10/05 06:15:49;;;;;;;7.53;4.72;;;;;;;13.14;100.00;101386.66;5262636;28;20429;-63
2022/10/05 06:18:21;;;;;;;8.02;4.60;;;;;;;13.13;100.00;101386.78;5259944;28;20035;-63
2022/10/05 06:21:01;;;;;;;7.47;4.70;;;;;;;13.13;100.00;101376.06;5260186;28;20032;-63
2022/10/05 06:23:50;;;;;;;7.38;4.25;;;;;;;13.17;100.00;101379.38;5268471;28;20029;-63
2022/10/05 06:26:50;;;;;;;7.13;4.18;;;;;;;13.16;100.00;101383.88;5253852;28;20414;-66
2022/10/05 06:29:32;;;;;;;6.05;4.60;;;;;;;13.16;100.00;101375.00;5276889;28;20032;-63
2022/10/05 06:32:13;;;;;;;7.15;4.57;;;;;;;13.23;100.00;101378.88;5282148;28;20290;-63
2022/10/05 06:34:55;;;;;;;6.30;4.30;;;;;;;13.22;100.00;101375.34;5269256;28;20024;-64
2022/10/05 06:37:42;;;;;;;6.20;4.28;;;;;;;13.28;100.00;101374.00;5281005;28;20037;-63
2022/10/05 06:40:22;;;;;;;6.65;4.20;;;;;;;13.27;100.00;101380.34;5285237;28;20031;-63
2022/10/05 06:43:11;;;;;;;6.00;4.25;;;;;;;13.26;100.00;101378.63;5283178;28;20039;-63
2022/10/05 06:46:10;;;;;;;8.40;4.82;;;;;;;13.26;100.00;101381.31;5283673;28;20042;-64
2022/10/05 06:49:00;;;;;;;7.80;4.80;;;;;;;13.27;100.00;101380.34;5285616;28;20046;-63
2022/10/05 06:51:46;;;;;;;7.22;4.82;;;;;;;13.30;100.00;101378.28;5282949;28;20032;-63
2022/10/05 06:54:42;;;;;;;7.22;4.82;;;;;;;13.31;100.00;101377.34;5269517;28;20896;-63
2022/10/05 06:57:37;;;;;;;7.85;4.80;;;;;;;13.31;100.00;101384.53;5277784;28;20020;-64
2022/10/05 07:00:30;;;;;;;6.50;4.50;;;;;;;13.34;100.00;101385.13;5260974;28;20185;-63
2022/10/05 07:03:34;;;;;;;9.50;4.88;;;;;;;13.39;100.00;101384.75;5285303;28;20020;-63
2022/10/05 07:06:10;;;;;;;7.80;4.75;;;;;;;13.39;100.00;101387.44;5282561;28;20036;-63
2022/10/05 07:09:13;;;;;;;7.05;4.97;;;;;;;13.43;100.00;101388.06;5281984;28;20028;-63
2022/10/05 07:12:02;;;;;;;6.07;5.10;;;;;;;13.42;100.00;101376.47;5276969;28;20044;-63
2022/10/05 07:14:53;;;;;;;8.20;4.80;;;;;;;13.50;100.00;101379.41;5272446;28;20040;-63
2022/10/05 07:17:30;;;;;;;8.05;5.00;;;;;;;13.53;100.00;101379.13;5272628;28;21090;-63
2022/10/05 07:20:31;;;;;;;7.97;4.63;;;;;;;13.58;100.00;101391.34;5264284;28;20035;-63
2022/10/05 07:23:21;;;;;;;7.20;4.90;;;;;;;13.61;100.00;101385.72;5276899;28;20461;-63
2022/10/05 07:26:10;;;;;;;5.85;4.43;;;;;;;13.63;100.00;101384.59;5278373;28;20671;-64
2022/10/05 07:29:06;;;;;;;8.27;4.60;;;;;;;13.67;100.00;101390.56;5271383;28;20391;-63
2022/10/05 07:32:08;;;;;;;6.50;4.32;;;;;;;13.72;100.00;101389.22;5277913;28;20085;-63
2022/10/05 07:37:53;;;;;;;8.40;4.80;;;;;;;13.74;100.00;101383.75;5285177;28;20541;-64
2022/10/05 07:38:37;;;;;;;7.75;4.80;;;;;;;13.79;100.00;101383.34;5285636;28;20176;-64
2022/10/05 07:41:34;;;;;;;7.60;4.68;;;;;;;13.83;100.00;101385.69;5278045;28;20430;-64
2022/10/05 07:44:19;;;;;;;7.00;4.43;;;;;;;13.86;100.00;101380.03;5273162;28;20387;-64
2022/10/05 07:47:14;;;;;;;9.02;4.95;;;;;;;13.89;100.00;101387.84;5278586;28;20221;-64
2022/10/05 07:49:57;;;;;;;;;;;;;;;13.96;100.00;101384.66;5290830;28;20103;-64
2022/10/05 07:52:39;;;;;;;7.25;4.00;;;;;;;13.99;100.00;101392.47;5280496;28;19923;-64
2022/10/05 07:55:24;;;;;;;5.90;4.13;;;;;;;14.04;100.00;101401.00;5289877;28;20037;-64
2022/10/05 07:58:26;;;;;;;6.88;4.25;;;;;;;14.05;100.00;101397.31;5285366;28;20147;-64
2022/10/05 08:01:13;;;;;;;5.68;4.00;;;;;;;14.11;100.00;101400.38;5265102;28;20412;-63
2022/10/05 08:04:06;;;;;;;5.93;4.07;;;;;;;14.15;100.00;101394.72;5283501;28;20379;-64
2022/10/05 08:07:17;;;;;;;8.77;4.03;;;;;;;14.22;100.00;101391.41;5286337;28;20059;-64
2022/10/05 08:10:04;;;;;;;5.72;3.85;;;;;;;14.28;100.00;101385.53;5227219;28;20815;-64
2022/10/05 08:12:45;;;;;;;7.85;4.18;;;;;;;14.34;100.00;101391.38;5225268;28;20030;-64
2022/10/05 08:15:22;;;;;;;7.85;4.03;;;;;;;14.40;100.00;101382.78;5262241;28;20179;-64
2022/10/05 08:18:00;;;;;;;5.40;3.70;;;;;;;14.38;100.00;101380.25;5289507;28;20020;-64
2022/10/05 08:20:42;;;;;;;6.22;3.97;;;;;;;14.51;100.00;101382.75;5294298;28;20065;-64
2022/10/05 08:23:16;;;;;;;8.10;3.53;;;;;;;14.60;100.00;101368.56;5264863;28;20024;-64
2022/10/05 08:26:08;;;;;;;6.45;3.60;;;;;;;14.57;100.00;101373.34;5284671;28;20033;-64
2022/10/05 08:28:49;;;;;;;5.80;3.58;;;;;;;14.59;100.00;101368.69;5274687;28;20060;-64
2022/10/05 08:31:37;;;;;;;4.70;3.00;;;;;;;14.63;100.00;101362.94;5278683;28;20130;-64
2022/10/05 08:34:33;;;;;;;5.68;3.45;;;;;;;14.75;100.00;101368.25;5283176;28;20028;-64
2022/10/05 08:37:14;;;;;;;6.47;3.85;;;;;;;14.73;100.00;101365.69;5277276;28;20512;-64
2022/10/05 08:39:55;;;;;;;6.55;3.60;;;;;;;14.77;100.00;101363.59;5290246;28;20116;-64
2022/10/05 08:42:55;;;;;;;6.32;3.72;;;;;;;14.88;100.00;101360.81;5280178;28;20051;-64
2022/10/05 08:45:45;;;;;;;8.65;3.25;;;;;;;15.04;100.00;101361.19;5277330;28;20028;-64
2022/10/05 08:48:47;;;;;;;6.90;3.50;;;;;;;14.97;100.00;101354.66;5282513;28;20028;-64
2022/10/05 08:51:50;;;;;;;6.32;3.67;;;;;;;15.04;100.00;101357.66;5291356;28;20019;-64
2022/10/05 08:54:33;;;;;;;5.57;3.67;;;;;;;15.14;100.00;101355.88;5289349;28;20043;-64
2022/10/05 08:57:43;;;;;;;7.10;3.42;;;;;;;15.18;100.00;101359.13;5280176;28;20024;-64
2022/10/05 09:00:19;;;;;;;7.45;3.28;;;;;;;15.19;100.00;101353.63;5281916;28;20036;-64
2022/10/05 09:03:08;;;;;;;5.15;3.20;;;;;;;15.23;100.00;101351.53;5283927;28;20070;-64
2022/10/05 09:06:00;;;;;;;4.35;2.85;;;;;;;15.31;100.00;101346.31;5290029;28;20027;-64
2022/10/05 09:09:01;;;;;;;6.00;2.97;;;;;;;15.40;100.00;101350.03;5286029;28;20036;-64
2022/10/05 09:11:56;;;;;;;6.18;3.20;;;;;;;15.49;100.00;101350.06;5283510;28;20119;-64
2022/10/05 09:14:27;;;;;;;8.38;3.47;;;;;;;15.46;100.00;101350.34;5286949;28;20531;-65
2022/10/05 09:17:19;;;;;;;8.75;3.80;;;;;;;15.58;100.00;101342.16;5293393;28;20031;-65
2022/10/05 09:20:09;;;;;;;6.88;3.17;;;;;;;15.61;100.00;101333.78;5286654;28;20378;-64
2022/10/05 09:22:50;;;;;;;4.60;2.78;;;;;;;15.67;100.00;101338.63;5284278;28;20144;-64
2022/10/05 09:25:31;;;;;;;6.03;2.97;;;;;;;15.76;100.00;101339.66;5278775;28;20036;-64
2022/10/05 09:28:21;;;;;;;6.30;3.00;;;;;;;15.83;100.00;101348.88;5276226;28;20020;-65
2022/10/05 09:31:25;;;;;;;5.55;2.95;;;;;;;15.86;100.00;101344.09;5285547;28;20038;-64
2022/10/05 09:34:18;;;;;;;6.18;2.60;;;;;;;15.99;100.00;101341.13;5294184;28;20035;-64
2022/10/05 09:37:27;;;;;;;6.15;2.80;;;;;;;16.05;100.00;101340.56;5283249;28;20032;-64
2022/10/05 09:40:13;;;;;;;5.43;2.78;;;;;;;16.12;100.00;101340.00;5284173;28;20394;-64
2022/10/05 09:43:09;;;;;;;5.45;2.88;;;;;;;16.13;100.00;101334.47;5277984;28;20474;-64
2022/10/05 09:46:05;;;;;;;10.57;3.33;;;;;;;16.17;100.00;101338.56;5276170;28;20060;-64
2022/10/05 09:48:36;;;;;;;5.65;2.70;;;;;;;16.17;100.00;101321.56;5290417;28;20765;-64
2022/10/05 09:51:18;;;;;;;5.97;2.72;;;;;;;16.23;100.00;101329.91;5276708;28;20025;-64
2022/10/05 09:54:21;;;;;;;5.78;3.03;;;;;;;16.23;100.00;101321.84;5278912;28;20077;-65
2022/10/05 09:57:24;;;;;;;6.35;2.72;;;;;;;16.36;100.00;101323.41;5234272;28;20040;-65
2022/10/05 10:00:20;;;;;;;5.43;2.78;;;;;;;16.37;100.00;101317.00;5279781;28;20028;-64
2022/10/05 10:03:27;;;;;;;5.95;2.88;;;;;;;16.46;100.00;101313.47;5275140;28;20545;-64
2022/10/05 10:06:16;;;;;;;8.40;2.67;;;;;;;16.51;100.00;101313.88;5285009;28;20051;-64
2022/10/05 10:09:09;;;;;;;4.68;2.65;;;;;;;16.56;100.00;101311.59;5267331;28;20041;-64
2022/10/05 10:12:12;;;;;;;7.45;2.83;;;;;;;16.59;100.00;101305.09;5280998;28;20156;-64
2022/10/05 10:15:28;;;;;;;5.88;2.78;;;;;;;16.65;100.00;101299.94;5271851;28;20036;-64
2022/10/05 10:18:20;;;;;;;4.43;2.40;;;;;;;16.70;100.00;101302.19;5266336;28;20432;-64
2022/10/05 10:21:04;;;;;;;8.57;3.08;;;;;;;16.79;100.00;101300.47;5285818;28;20035;-65
2022/10/05 10:23:59;;;;;;;5.80;2.92;;;;;;;16.83;100.00;101286.56;5273955;28;20029;-65
2022/10/05 10:27:01;;;;;;;4.88;2.58;;;;;;;16.90;100.00;101284.16;5280251;28;20338;-65
2022/10/05 10:29:41;;;;;;;7.18;3.72;;;;;;;16.94;100.00;101288.25;5274272;28;20047;-65
2022/10/05 10:32:50;;;;;;;5.40;2.60;;;;;;;17.00;100.00;101282.25;5278441;28;20390;-65
2022/10/05 10:35:34;;;;;;;7.68;2.95;;;;;;;17.05;100.00;101284.53;5284927;28;20036;-64
2022/10/05 10:38:29;;;;;;;4.40;2.22;;;;;;;17.16;100.00;101286.16;5276260;28;20056;-64
2022/10/05 10:41:34;;;;;;;5.13;2.50;;;;;;;17.14;100.00;101271.97;5283032;28;20037;-65
2022/10/05 10:44:48;;;;;;;4.63;2.60;;;;;;;17.19;100.00;101272.38;5283623;28;20115;-65
2022/10/05 10:47:42;;;;;;;5.70;2.83;;;;;;;17.27;100.00;101260.84;5255243;28;20122;-65
2022/10/05 10:50:41;;;;;;;7.10;2.60;;;;;;;17.37;100.00;101265.19;5268676;28;20495;-65
2022/10/05 10:53:37;;;;;;;4.93;2.13;;;;;;;17.43;100.00;101266.41;5271222;28;20043;-65
2022/10/05 10:56:27;;;;;;;6.00;2.20;;;;;;;17.47;100.00;101256.16;5279852;28;20025;-65
2022/10/05 10:59:26;;;;;;;4.00;2.05;;;;;;;17.50;100.00;101255.88;5267718;28;20233;-65
2022/10/05 11:02:48;;;;;;;3.92;2.20;;;;;;;17.60;100.00;101251.25;5273189;28;20036;-65
2022/10/05 11:05:58;;;;;;;4.95;2.03;;;;;;;17.63;100.00;101253.66;5197995;28;20510;-65
2022/10/05 11:09:09;;;;;;;7.50;2.20;;;;;;;17.66;100.00;101247.97;5274486;28;20060;-65
2022/10/05 11:12:18;;;;;;;5.88;2.10;;;;;;;17.72;100.00;101238.38;5269643;28;20050;-64
2022/10/05 11:15:15;;;;;;;3.92;2.25;;;;;;;17.71;100.00;101237.53;5277915;28;20060;-65
2022/10/05 11:17:49;;;;;;;7.60;1.90;;;;;;;17.79;100.00;101229.50;5270548;28;20028;-65
2022/10/05 11:20:58;;;;;;;6.63;2.17;;;;;;;17.79;100.00;101234.88;5268243;28;20044;-65
2022/10/05 11:24:08;;;;;;;5.07;1.70;;;;;;;17.78;100.00;101241.31;5253071;28;20043;-65
2022/10/05 11:26:40;;;;;;;6.47;2.05;;;;;;;17.84;100.00;101226.38;5281328;28;20134;-65
2022/10/05 11:29:33;;;;;;;5.80;1.85;;;;;;;17.90;100.00;101230.31;5283064;28;20654;-65
2022/10/05 11:32:48;;;;;;;9.20;2.55;;;;;;;17.92;100.00;101229.13;5273030;28;20040;-65
2022/10/05 11:35:44;;;;;;;7.00;2.05;;;;;;;17.95;100.00;101222.56;5282762;28;20032;-65
2022/10/05 11:38:18;;;;;;;7.63;1.95;;;;;;;17.94;99.47;101210.94;5277407;28;20538;-65
2022/10/05 11:41:27;;;;;;;5.78;1.70;;;;;;;17.99;100.00;101207.78;5274643;28;20032;-65
2022/10/05 11:44:37;;;;;;;5.32;1.92;;;;;;;18.07;100.00;101204.28;5286095;28;20107;-65
2022/10/05 11:47:21;;;;;;;8.10;1.85;;;;;;;18.10;100.00;101190.44;5283777;28;20024;-65
2022/10/05 11:50:04;;;;;;;5.43;2.00;;;;;;;18.26;100.00;101201.38;5276181;28;20029;-65
2022/10/05 11:52:59;;;;;;;4.70;1.60;;;;;;;18.33;98.98;101197.03;5275865;28;20090;-65
2022/10/05 11:55:41;;;;;;;;;;;;;;;18.38;100.00;101185.75;5282303;28;20446;-65
2022/10/05 11:58:21;;;;;;;5.95;1.60;;;;;;;18.48;97.35;101182.94;5282483;28;19923;-65
2022/10/05 12:01:05;;;;;;;4.78;1.70;;;;;;;18.39;98.40;101177.47;5267757;28;20117;-65
2022/10/05 12:03:47;;;;;;;4.82;1.60;;;;;;;18.41;98.99;101180.03;5275794;28;20021;-65
2022/10/05 12:06:48;;;;;;;3.75;1.50;;;;;;;18.57;98.58;101163.88;5283226;28;20116;-65
2022/10/05 12:09:32;;;;;;;3.65;1.30;;;;;;;18.51;98.93;101153.72;5289542;28;20036;-65
2022/10/05 12:12:16;;;;;;;3.88;1.48;;;;;;;18.55;98.69;101152.38;5276122;28;20034;-65
2022/10/05 12:15:13;;;;;;;2.90;1.40;;;;;;;18.65;99.36;101132.50;5275540;28;20036;-65
2022/10/05 12:17:55;;;;;;;2.95;1.50;;;;;;;18.66;96.32;101140.44;5281614;28;20031;-65
2022/10/05 12:20:38;;;;;;;4.68;1.42;;;;;;;18.74;97.34;101140.47;5280432;28;20056;-66
2022/10/05 12:23:18;;;;;;;3.85;1.48;;;;;;;18.76;95.75;101141.16;5284887;28;20565;-65
2022/10/05 12:26:10;;;;;;;4.50;1.30;;;;;;;18.84;97.06;101147.63;5289183;28;20023;-65
2022/10/05 12:28:46;;;;;;;3.95;1.20;;;;;;;18.92;94.27;101136.84;5286049;28;20035;-65
2022/10/05 12:31:40;;;;;;;5.93;1.60;;;;;;;18.92;96.41;101139.53;5266855;28;20490;-65
2022/10/05 12:34:31;;;;;;;4.50;1.60;;;;;;;18.90;97.37;101130.75;5275375;28;20359;-65
2022/10/05 12:37:36;;;;;;;4.00;1.63;;;;;;;18.90;95.05;101136.16;5281373;28;20037;-65
2022/10/05 12:40:26;;;;;;;3.35;1.20;;;;;;;18.83;96.87;101127.00;5283542;28;20422;-65
2022/10/05 12:43:32;;;;;;;4.25;1.38;;;;;;;18.84;94.94;101137.66;5275683;28;20028;-65
2022/10/05 12:46:12;;;;;;;12.95;1.52;;;;;;;18.82;92.92;101131.56;5279637;28;20024;-65
2022/10/05 12:49:06;;;;;;;5.60;1.30;;;;;;;18.84;94.12;101129.56;5284286;28;20454;-66
2022/10/05 12:51:58;;;;;;;7.43;1.55;;;;;;;18.95;93.57;101129.25;5286508;28;20510;-64
2022/10/05 12:54:29;;;;;;;5.32;1.45;;;;;;;18.92;91.74;101140.38;5269785;28;20072;-65